sensor_id;sensor_type;location;lat;lon;timestamp;temperature;humidity
43627;DHT22;29217;52.586;13.442;2023-04-20T00:01:00;6.10;99.90
43627;DHT22;29217;52.586;13.442;2023-04-20T00:03:26;6.10;99.90
43627;DHT22;29217;52.586;13.442;2023-04-20T00:05:52;6.20;99.90
43627;DHT22;29217;52.586;13.442;2023-04-20T00:08:18;6.10;99.90
43627;DHT22;29217;52.586;13.442;2023-04-20T00:10:44;6.20;99.90
43627;DHT22;29217;52.586;13.442;2023-04-20T00:13:11;6.10;99.90
43627;DHT22;29217;52.586;13.442;2023-04-20T00:15:37;6.10;99.90
43627;DHT22;29217;52.586;13.442;2023-04-20T00:18:03;6.10;99.90
43627;DHT22;29217;52.586;13.442;2023-04-20T00:20:29;6.10;99.90
43627;DHT22;29217;52.586;13.442;2023-04-20T00:22:55;6.10;99.90
43627;DHT22;29217;52.586;13.442;2023-04-20T00:25:20;6.10;99.90
43627;DHT22;29217;52.586;13.442;2023-04-20T00:27:46;6.10;99.90
43627;DHT22;29217;52.586;13.442;2023-04-20T00:30:12;6.10;99.90
43627;DHT22;29217;52.586;13.442;2023-04-20T00:32:38;6.10;99.90
43627;DHT22;29217;52.586;13.442;2023-04-20T00:35:04;6.10;99.90
43627;DHT22;29217;52.586;13.442;2023-04-20T00:37:29;6.10;99.90
43627;DHT22;29217;52.586;13.442;2023-04-20T00:39:56;6.10;99.90
43627;DHT22;29217;52.586;13.442;2023-04-20T00:42:22;6.10;99.90
43627;DHT22;29217;52.586;13.442;2023-04-20T00:44:47;6.10;99.90
43627;DHT22;29217;52.586;13.442;2023-04-20T00:47:15;6.10;99.90
43627;DHT22;29217;52.586;13.442;2023-04-20T00:49:41;6.10;99.90
43627;DHT22;29217;52.586;13.442;2023-04-20T00:52:07;6.20;99.90
43627;DHT22;29217;52.586;13.442;2023-04-20T00:54:33;6.20;99.90
43627;DHT22;29217;52.586;13.442;2023-04-20T00:57:00;6.20;99.90
43627;DHT22;29217;52.586;13.442;2023-04-20T00:59:27;6.20;99.90
43627;DHT22;29217;52.586;13.442;2023-04-20T01:01:53;6.20;99.90
43627;DHT22;29217;52.586;13.442;2023-04-20T01:04:18;6.20;99.90
43627;DHT22;29217;52.586;13.442;2023-04-20T01:06:44;6.30;99.90
43627;DHT22;29217;52.586;13.442;2023-04-20T01:09:10;6.20;99.90
43627;DHT22;29217;52.586;13.442;2023-04-20T01:11:37;6.20;99.90
43627;DHT22;29217;52.586;13.442;2023-04-20T01:14:02;6.20;99.90
43627;DHT22;29217;52.586;13.442;2023-04-20T01:16:29;6.20;99.90
43627;DHT22;29217;52.586;13.442;2023-04-20T01:18:54;6.20;99.90
43627;DHT22;29217;52.586;13.442;2023-04-20T01:21:20;6.30;99.90
43627;DHT22;29217;52.586;13.442;2023-04-20T01:23:47;6.30;99.90
43627;DHT22;29217;52.586;13.442;2023-04-20T01:26:15;6.20;99.90
43627;DHT22;29217;52.586;13.442;2023-04-20T01:28:41;6.30;99.90
43627;DHT22;29217;52.586;13.442;2023-04-20T01:31:07;6.30;99.90
43627;DHT22;29217;52.586;13.442;2023-04-20T01:33:33;6.30;99.90
43627;DHT22;29217;52.586;13.442;2023-04-20T01:35:59;6.30;99.90
43627;DHT22;29217;52.586;13.442;2023-04-20T01:38:26;6.30;99.90
43627;DHT22;29217;52.586;13.442;2023-04-20T01:40:53;6.30;99.90
43627;DHT22;29217;52.586;13.442;2023-04-20T01:43:20;6.20;99.90
43627;DHT22;29217;52.586;13.442;2023-04-20T01:45:46;6.20;99.90
43627;DHT22;29217;52.586;13.442;2023-04-20T01:48:12;6.30;99.90
43627;DHT22;29217;52.586;13.442;2023-04-20T01:50:37;6.30;99.90
43627;DHT22;29217;52.586;13.442;2023-04-20T01:53:03;6.30;99.90
43627;DHT22;29217;52.586;13.442;2023-04-20T01:55:28;6.30;99.90
43627;DHT22;29217;52.586;13.442;2023-04-20T01:57:54;6.30;99.90
43627;DHT22;29217;52.586;13.442;2023-04-20T02:00:20;6.30;99.90
43627;DHT22;29217;52.586;13.442;2023-04-20T02:02:45;6.30;99.90
43627;DHT22;29217;52.586;13.442;2023-04-20T02:05:11;6.30;99.90
43627;DHT22;29217;52.586;13.442;2023-04-20T02:07:36;6.30;99.90
43627;DHT22;29217;52.586;13.442;2023-04-20T02:10:03;6.30;99.90
43627;DHT22;29217;52.586;13.442;2023-04-20T02:12:29;6.30;99.90
43627;DHT22;29217;52.586;13.442;2023-04-20T02:14:54;6.30;99.90
43627;DHT22;29217;52.586;13.442;2023-04-20T02:17:20;6.30;99.90
43627;DHT22;29217;52.586;13.442;2023-04-20T02:19:46;6.40;99.90
43627;DHT22;29217;52.586;13.442;2023-04-20T02:22:11;6.30;99.90
43627;DHT22;29217;52.586;13.442;2023-04-20T02:24:37;6.40;99.90
43627;DHT22;29217;52.586;13.442;2023-04-20T02:27:03;6.30;99.90
43627;DHT22;29217;52.586;13.442;2023-04-20T02:29:28;6.30;99.90
43627;DHT22;29217;52.586;13.442;2023-04-20T02:31:54;6.40;99.90
43627;DHT22;29217;52.586;13.442;2023-04-20T02:34:20;6.40;99.90
43627;DHT22;29217;52.586;13.442;2023-04-20T02:36:45;6.50;99.90
43627;DHT22;29217;52.586;13.442;2023-04-20T02:39:11;6.50;99.90
43627;DHT22;29217;52.586;13.442;2023-04-20T02:41:37;6.40;99.90
43627;DHT22;29217;52.586;13.442;2023-04-20T02:44:03;6.40;99.90
43627;DHT22;29217;52.586;13.442;2023-04-20T02:46:28;6.40;99.90
43627;DHT22;29217;52.586;13.442;2023-04-20T02:48:54;6.30;99.90
43627;DHT22;29217;52.586;13.442;2023-04-20T02:51:20;6.30;99.90
43627;DHT22;29217;52.586;13.442;2023-04-20T02:53:46;6.30;99.90
43627;DHT22;29217;52.586;13.442;2023-04-20T02:56:11;6.40;99.90
43627;DHT22;29217;52.586;13.442;2023-04-20T02:58:37;6.50;99.90
43627;DHT22;29217;52.586;13.442;2023-04-20T03:01:03;6.40;99.90
43627;DHT22;29217;52.586;13.442;2023-04-20T03:03:28;6.40;99.90
43627;DHT22;29217;52.586;13.442;2023-04-20T03:05:55;6.50;99.90
43627;DHT22;29217;52.586;13.442;2023-04-20T03:08:21;6.40;99.90
43627;DHT22;29217;52.586;13.442;2023-04-20T03:10:47;6.40;99.90
43627;DHT22;29217;52.586;13.442;2023-04-20T03:13:13;6.40;99.90
43627;DHT22;29217;52.586;13.442;2023-04-20T03:15:39;6.30;99.90
43627;DHT22;29217;52.586;13.442;2023-04-20T03:18:05;6.40;99.90
43627;DHT22;29217;52.586;13.442;2023-04-20T03:20:30;6.40;99.90
43627;DHT22;29217;52.586;13.442;2023-04-20T03:22:57;6.40;99.90
43627;DHT22;29217;52.586;13.442;2023-04-20T03:25:22;6.40;99.90
43627;DHT22;29217;52.586;13.442;2023-04-20T03:27:48;6.50;99.90
43627;DHT22;29217;52.586;13.442;2023-04-20T03:30:14;6.40;99.90
43627;DHT22;29217;52.586;13.442;2023-04-20T03:32:40;6.50;99.90
43627;DHT22;29217;52.586;13.442;2023-04-20T03:35:07;6.40;99.90
43627;DHT22;29217;52.586;13.442;2023-04-20T03:37:35;6.40;99.90
43627;DHT22;29217;52.586;13.442;2023-04-20T03:40:01;6.40;99.90
43627;DHT22;29217;52.586;13.442;2023-04-20T03:42:27;6.30;99.90
43627;DHT22;29217;52.586;13.442;2023-04-20T03:44:52;6.30;99.90
43627;DHT22;29217;52.586;13.442;2023-04-20T03:47:18;6.30;99.90
43627;DHT22;29217;52.586;13.442;2023-04-20T03:49:43;6.40;99.90
43627;DHT22;29217;52.586;13.442;2023-04-20T03:52:09;6.40;99.90
43627;DHT22;29217;52.586;13.442;2023-04-20T03:54:34;6.40;99.90
43627;DHT22;29217;52.586;13.442;2023-04-20T03:57:00;6.40;99.90
43627;DHT22;29217;52.586;13.442;2023-04-20T03:59:26;6.40;99.90
43627;DHT22;29217;52.586;13.442;2023-04-20T04:01:52;6.50;99.90
43627;DHT22;29217;52.586;13.442;2023-04-20T04:04:18;6.40;99.90
43627;DHT22;29217;52.586;13.442;2023-04-20T04:06:44;6.40;99.90
43627;DHT22;29217;52.586;13.442;2023-04-20T04:09:09;6.40;99.90
43627;DHT22;29217;52.586;13.442;2023-04-20T04:11:35;6.50;99.90
43627;DHT22;29217;52.586;13.442;2023-04-20T04:14:00;6.50;99.90
43627;DHT22;29217;52.586;13.442;2023-04-20T04:16:30;6.50;99.90
43627;DHT22;29217;52.586;13.442;2023-04-20T04:18:55;6.50;99.90
43627;DHT22;29217;52.586;13.442;2023-04-20T04:21:21;6.40;99.90
43627;DHT22;29217;52.586;13.442;2023-04-20T04:23:47;6.40;99.90
43627;DHT22;29217;52.586;13.442;2023-04-20T04:26:13;6.40;99.90
43627;DHT22;29217;52.586;13.442;2023-04-20T04:28:38;6.40;99.90
43627;DHT22;29217;52.586;13.442;2023-04-20T04:31:05;6.50;99.90
43627;DHT22;29217;52.586;13.442;2023-04-20T04:33:33;6.40;99.90
43627;DHT22;29217;52.586;13.442;2023-04-20T04:35:59;6.40;99.90
43627;DHT22;29217;52.586;13.442;2023-04-20T04:38:25;6.50;99.90
43627;DHT22;29217;52.586;13.442;2023-04-20T04:40:52;6.50;99.90
43627;DHT22;29217;52.586;13.442;2023-04-20T04:43:18;6.50;99.90
43627;DHT22;29217;52.586;13.442;2023-04-20T04:45:44;6.50;99.90
43627;DHT22;29217;52.586;13.442;2023-04-20T04:48:10;6.60;99.90
43627;DHT22;29217;52.586;13.442;2023-04-20T04:50:37;6.60;99.90
43627;DHT22;29217;52.586;13.442;2023-04-20T04:53:03;6.60;99.90
43627;DHT22;29217;52.586;13.442;2023-04-20T04:55:28;6.60;99.90
43627;DHT22;29217;52.586;13.442;2023-04-20T04:57:54;6.70;99.90
43627;DHT22;29217;52.586;13.442;2023-04-20T05:00:20;6.70;99.90
43627;DHT22;29217;52.586;13.442;2023-04-20T05:02:47;6.70;99.90
43627;DHT22;29217;52.586;13.442;2023-04-20T05:05:12;6.70;99.90
43627;DHT22;29217;52.586;13.442;2023-04-20T05:07:38;6.70;99.90
43627;DHT22;29217;52.586;13.442;2023-04-20T05:10:05;6.80;99.90
43627;DHT22;29217;52.586;13.442;2023-04-20T05:12:31;6.80;99.90
43627;DHT22;29217;52.586;13.442;2023-04-20T05:14:57;6.80;99.90
43627;DHT22;29217;52.586;13.442;2023-04-20T05:17:22;6.90;99.90
43627;DHT22;29217;52.586;13.442;2023-04-20T05:19:48;6.80;99.90
43627;DHT22;29217;52.586;13.442;2023-04-20T05:22:14;6.80;99.90
43627;DHT22;29217;52.586;13.442;2023-04-20T05:24:39;6.90;99.90
43627;DHT22;29217;52.586;13.442;2023-04-20T05:27:06;6.90;99.90
43627;DHT22;29217;52.586;13.442;2023-04-20T05:29:32;6.90;99.90
43627;DHT22;29217;52.586;13.442;2023-04-20T05:31:58;6.90;99.90
43627;DHT22;29217;52.586;13.442;2023-04-20T05:34:23;7.00;99.90
43627;DHT22;29217;52.586;13.442;2023-04-20T05:36:49;7.00;99.90
43627;DHT22;29217;52.586;13.442;2023-04-20T05:39:16;6.90;99.90
43627;DHT22;29217;52.586;13.442;2023-04-20T05:41:41;7.00;99.90
43627;DHT22;29217;52.586;13.442;2023-04-20T05:44:07;7.00;99.90
43627;DHT22;29217;52.586;13.442;2023-04-20T05:46:33;7.00;99.90
43627;DHT22;29217;52.586;13.442;2023-04-20T05:48:58;7.00;99.90
43627;DHT22;29217;52.586;13.442;2023-04-20T05:51:24;7.00;99.90
43627;DHT22;29217;52.586;13.442;2023-04-20T05:53:53;7.10;99.90
43627;DHT22;29217;52.586;13.442;2023-04-20T05:56:19;7.10;99.90
43627;DHT22;29217;52.586;13.442;2023-04-20T05:58:45;7.20;99.90
43627;DHT22;29217;52.586;13.442;2023-04-20T06:01:10;7.10;99.90
43627;DHT22;29217;52.586;13.442;2023-04-20T06:03:36;7.20;99.90
43627;DHT22;29217;52.586;13.442;2023-04-20T06:06:02;7.20;99.90
43627;DHT22;29217;52.586;13.442;2023-04-20T06:08:27;7.30;99.90
43627;DHT22;29217;52.586;13.442;2023-04-20T06:10:54;7.20;99.90
43627;DHT22;29217;52.586;13.442;2023-04-20T06:13:23;7.30;99.90
43627;DHT22;29217;52.586;13.442;2023-04-20T06:15:48;7.10;99.90
43627;DHT22;29217;52.586;13.442;2023-04-20T06:18:14;7.20;99.90
43627;DHT22;29217;52.586;13.442;2023-04-20T06:20:42;7.30;99.90
43627;DHT22;29217;52.586;13.442;2023-04-20T06:23:08;7.30;99.90
43627;DHT22;29217;52.586;13.442;2023-04-20T06:25:35;7.30;99.90
43627;DHT22;29217;52.586;13.442;2023-04-20T06:28:01;7.30;99.90
43627;DHT22;29217;52.586;13.442;2023-04-20T06:30:27;7.30;99.90
43627;DHT22;29217;52.586;13.442;2023-04-20T06:32:52;7.40;99.90
43627;DHT22;29217;52.586;13.442;2023-04-20T06:35:18;7.30;99.90
43627;DHT22;29217;52.586;13.442;2023-04-20T06:37:43;7.40;99.90
43627;DHT22;29217;52.586;13.442;2023-04-20T06:40:09;7.40;99.90
43627;DHT22;29217;52.586;13.442;2023-04-20T06:42:35;7.40;99.90
43627;DHT22;29217;52.586;13.442;2023-04-20T06:45:01;7.40;99.90
43627;DHT22;29217;52.586;13.442;2023-04-20T06:47:27;7.50;99.90
43627;DHT22;29217;52.586;13.442;2023-04-20T06:49:57;7.50;99.90
43627;DHT22;29217;52.586;13.442;2023-04-20T06:52:23;7.50;99.90
43627;DHT22;29217;52.586;13.442;2023-04-20T06:54:48;7.60;99.90
43627;DHT22;29217;52.586;13.442;2023-04-20T06:57:14;7.60;99.90
43627;DHT22;29217;52.586;13.442;2023-04-20T06:59:40;7.70;99.90
43627;DHT22;29217;52.586;13.442;2023-04-20T07:02:06;7.60;99.90
43627;DHT22;29217;52.586;13.442;2023-04-20T07:04:31;7.70;99.90
43627;DHT22;29217;52.586;13.442;2023-04-20T07:06:57;7.80;99.90
43627;DHT22;29217;52.586;13.442;2023-04-20T07:09:22;7.90;99.90
43627;DHT22;29217;52.586;13.442;2023-04-20T07:11:49;7.90;99.90
43627;DHT22;29217;52.586;13.442;2023-04-20T07:14:14;8.00;99.90
43627;DHT22;29217;52.586;13.442;2023-04-20T07:16:40;8.00;99.90
43627;DHT22;29217;52.586;13.442;2023-04-20T07:19:05;8.20;99.90
43627;DHT22;29217;52.586;13.442;2023-04-20T07:21:31;8.40;99.90
43627;DHT22;29217;52.586;13.442;2023-04-20T07:23:57;8.30;99.90
43627;DHT22;29217;52.586;13.442;2023-04-20T07:26:24;8.40;99.90
43627;DHT22;29217;52.586;13.442;2023-04-20T07:28:50;8.30;99.90
43627;DHT22;29217;52.586;13.442;2023-04-20T07:31:16;8.50;99.90
43627;DHT22;29217;52.586;13.442;2023-04-20T07:33:42;8.50;99.90
43627;DHT22;29217;52.586;13.442;2023-04-20T07:36:08;8.50;99.90
43627;DHT22;29217;52.586;13.442;2023-04-20T07:38:34;8.50;99.90
43627;DHT22;29217;52.586;13.442;2023-04-20T07:41:00;8.50;99.90
43627;DHT22;29217;52.586;13.442;2023-04-20T07:43:25;8.60;99.90
43627;DHT22;29217;52.586;13.442;2023-04-20T07:45:51;8.70;99.90
43627;DHT22;29217;52.586;13.442;2023-04-20T07:48:16;8.60;99.90
43627;DHT22;29217;52.586;13.442;2023-04-20T07:50:42;8.60;99.90
43627;DHT22;29217;52.586;13.442;2023-04-20T07:53:08;8.60;99.90
43627;DHT22;29217;52.586;13.442;2023-04-20T07:55:33;8.50;99.90
43627;DHT22;29217;52.586;13.442;2023-04-20T07:57:59;8.50;99.90
43627;DHT22;29217;52.586;13.442;2023-04-20T08:00:25;8.50;99.90
43627;DHT22;29217;52.586;13.442;2023-04-20T08:02:51;8.50;99.90
43627;DHT22;29217;52.586;13.442;2023-04-20T08:05:17;8.50;99.90
43627;DHT22;29217;52.586;13.442;2023-04-20T08:07:42;8.40;99.90
43627;DHT22;29217;52.586;13.442;2023-04-20T08:10:09;8.50;99.90
43627;DHT22;29217;52.586;13.442;2023-04-20T08:12:35;8.50;99.90
43627;DHT22;29217;52.586;13.442;2023-04-20T08:15:00;8.50;99.90
43627;DHT22;29217;52.586;13.442;2023-04-20T08:17:29;8.60;99.90
43627;DHT22;29217;52.586;13.442;2023-04-20T08:19:55;8.70;99.90
43627;DHT22;29217;52.586;13.442;2023-04-20T08:22:20;8.70;99.90
43627;DHT22;29217;52.586;13.442;2023-04-20T08:24:46;8.80;99.90
43627;DHT22;29217;52.586;13.442;2023-04-20T08:27:12;8.90;99.90
43627;DHT22;29217;52.586;13.442;2023-04-20T08:29:38;9.00;99.90
43627;DHT22;29217;52.586;13.442;2023-04-20T08:32:04;9.00;99.90
43627;DHT22;29217;52.586;13.442;2023-04-20T08:34:33;9.10;99.90
43627;DHT22;29217;52.586;13.442;2023-04-20T08:36:59;9.20;99.90
43627;DHT22;29217;52.586;13.442;2023-04-20T08:39:24;9.10;99.90
43627;DHT22;29217;52.586;13.442;2023-04-20T08:41:50;9.00;99.90
43627;DHT22;29217;52.586;13.442;2023-04-20T08:44:20;8.90;99.90
43627;DHT22;29217;52.586;13.442;2023-04-20T08:46:47;8.90;99.90
43627;DHT22;29217;52.586;13.442;2023-04-20T08:49:17;8.90;99.90
43627;DHT22;29217;52.586;13.442;2023-04-20T08:51:44;8.90;99.90
43627;DHT22;29217;52.586;13.442;2023-04-20T08:54:11;8.80;99.90
43627;DHT22;29217;52.586;13.442;2023-04-20T08:56:46;8.80;99.90
43627;DHT22;29217;52.586;13.442;2023-04-20T08:59:13;8.80;99.90
43627;DHT22;29217;52.586;13.442;2023-04-20T09:01:40;8.80;99.90
43627;DHT22;29217;52.586;13.442;2023-04-20T09:04:21;8.70;99.90
43627;DHT22;29217;52.586;13.442;2023-04-20T09:06:49;8.60;99.90
43627;DHT22;29217;52.586;13.442;2023-04-20T09:09:15;8.70;99.90
43627;DHT22;29217;52.586;13.442;2023-04-20T09:11:41;8.60;99.90
43627;DHT22;29217;52.586;13.442;2023-04-20T09:14:09;8.60;99.90
43627;DHT22;29217;52.586;13.442;2023-04-20T09:19:20;8.30;99.90
43627;DHT22;29217;52.586;13.442;2023-04-20T09:21:48;8.40;99.90
43627;DHT22;29217;52.586;13.442;2023-04-20T09:24:14;8.40;99.90
43627;DHT22;29217;52.586;13.442;2023-04-20T09:26:40;8.40;99.90
43627;DHT22;29217;52.586;13.442;2023-04-20T09:29:20;8.50;99.90
43627;DHT22;29217;52.586;13.442;2023-04-20T09:31:47;8.50;99.90
43627;DHT22;29217;52.586;13.442;2023-04-20T09:34:13;8.50;99.90
43627;DHT22;29217;52.586;13.442;2023-04-20T09:36:41;8.50;99.90
43627;DHT22;29217;52.586;13.442;2023-04-20T09:39:13;8.60;99.90
43627;DHT22;29217;52.586;13.442;2023-04-20T09:41:40;8.70;99.90
43627;DHT22;29217;52.586;13.442;2023-04-20T09:44:07;8.80;99.90
43627;DHT22;29217;52.586;13.442;2023-04-20T09:46:34;8.90;99.90
43627;DHT22;29217;52.586;13.442;2023-04-20T09:49:03;9.10;99.90
43627;DHT22;29217;52.586;13.442;2023-04-20T09:51:32;9.10;99.90
43627;DHT22;29217;52.586;13.442;2023-04-20T09:54:02;9.10;99.90
43627;DHT22;29217;52.586;13.442;2023-04-20T09:56:29;9.30;99.90
43627;DHT22;29217;52.586;13.442;2023-04-20T09:58:55;9.30;99.90
43627;DHT22;29217;52.586;13.442;2023-04-20T10:01:22;9.50;99.90
43627;DHT22;29217;52.586;13.442;2023-04-20T10:03:48;9.60;99.90
43627;DHT22;29217;52.586;13.442;2023-04-20T10:06:21;9.60;99.90
43627;DHT22;29217;52.586;13.442;2023-04-20T10:08:48;9.80;99.90
43627;DHT22;29217;52.586;13.442;2023-04-20T10:11:25;9.80;99.90
43627;DHT22;29217;52.586;13.442;2023-04-20T10:13:51;10.00;99.90
43627;DHT22;29217;52.586;13.442;2023-04-20T10:16:20;10.20;99.90
43627;DHT22;29217;52.586;13.442;2023-04-20T10:21:22;10.50;99.90
43627;DHT22;29217;52.586;13.442;2023-04-20T10:23:48;10.60;99.90
43627;DHT22;29217;52.586;13.442;2023-04-20T10:26:14;10.60;99.90
43627;DHT22;29217;52.586;13.442;2023-04-20T10:28:41;10.60;99.90
43627;DHT22;29217;52.586;13.442;2023-04-20T10:31:10;10.70;99.90
43627;DHT22;29217;52.586;13.442;2023-04-20T10:36:27;11.10;99.90
43627;DHT22;29217;52.586;13.442;2023-04-20T10:38:54;11.20;99.90
43627;DHT22;29217;52.586;13.442;2023-04-20T10:41:20;11.20;99.90
43627;DHT22;29217;52.586;13.442;2023-04-20T10:43:46;11.20;99.90
43627;DHT22;29217;52.586;13.442;2023-04-20T10:46:22;11.20;99.90
43627;DHT22;29217;52.586;13.442;2023-04-20T10:51:17;11.40;99.90
43627;DHT22;29217;52.586;13.442;2023-04-20T10:53:43;11.60;99.90
43627;DHT22;29217;52.586;13.442;2023-04-20T10:56:09;11.50;99.90
43627;DHT22;29217;52.586;13.442;2023-04-20T10:58:35;11.50;99.90
43627;DHT22;29217;52.586;13.442;2023-04-20T11:01:02;11.50;99.90
43627;DHT22;29217;52.586;13.442;2023-04-20T11:03:29;11.50;99.90
43627;DHT22;29217;52.586;13.442;2023-04-20T11:05:58;11.60;99.90
43627;DHT22;29217;52.586;13.442;2023-04-20T11:08:39;11.60;99.90
43627;DHT22;29217;52.586;13.442;2023-04-20T11:11:17;11.70;99.90
43627;DHT22;29217;52.586;13.442;2023-04-20T11:13:43;11.80;99.90
43627;DHT22;29217;52.586;13.442;2023-04-20T11:16:11;11.80;99.90
43627;DHT22;29217;52.586;13.442;2023-04-20T11:18:49;11.90;99.90
43627;DHT22;29217;52.586;13.442;2023-04-20T11:21:16;11.90;99.90
43627;DHT22;29217;52.586;13.442;2023-04-20T11:23:42;11.90;99.90
43627;DHT22;29217;52.586;13.442;2023-04-20T11:26:09;12.00;99.90
43627;DHT22;29217;52.586;13.442;2023-04-20T11:28:35;12.40;99.90
43627;DHT22;29217;52.586;13.442;2023-04-20T11:31:01;12.60;99.90
43627;DHT22;29217;52.586;13.442;2023-04-20T11:33:28;12.70;99.90
43627;DHT22;29217;52.586;13.442;2023-04-20T11:35:58;12.70;99.90
43627;DHT22;29217;52.586;13.442;2023-04-20T11:38:42;12.70;99.90
43627;DHT22;29217;52.586;13.442;2023-04-20T11:41:07;12.70;99.90
43627;DHT22;29217;52.586;13.442;2023-04-20T11:43:34;12.50;99.90
43627;DHT22;29217;52.586;13.442;2023-04-20T11:46:00;12.50;99.90
43627;DHT22;29217;52.586;13.442;2023-04-20T11:48:29;12.40;99.90
43627;DHT22;29217;52.586;13.442;2023-04-20T11:50:58;12.50;99.90
43627;DHT22;29217;52.586;13.442;2023-04-20T11:53:23;12.50;99.90
43627;DHT22;29217;52.586;13.442;2023-04-20T11:55:49;12.50;99.90
43627;DHT22;29217;52.586;13.442;2023-04-20T11:58:15;12.50;99.90
43627;DHT22;29217;52.586;13.442;2023-04-20T12:00:40;12.40;99.90
43627;DHT22;29217;52.586;13.442;2023-04-20T12:03:06;12.40;99.90
43627;DHT22;29217;52.586;13.442;2023-04-20T12:05:32;12.40;99.90
43627;DHT22;29217;52.586;13.442;2023-04-20T12:07:58;12.50;99.90
43627;DHT22;29217;52.586;13.442;2023-04-20T12:10:23;12.60;99.90
43627;DHT22;29217;52.586;13.442;2023-04-20T12:12:49;12.60;99.90
43627;DHT22;29217;52.586;13.442;2023-04-20T12:15:14;12.90;99.90
43627;DHT22;29217;52.586;13.442;2023-04-20T12:17:40;13.60;99.90
43627;DHT22;29217;52.586;13.442;2023-04-20T12:20:06;13.90;99.90
43627;DHT22;29217;52.586;13.442;2023-04-20T12:22:33;13.70;99.90
43627;DHT22;29217;52.586;13.442;2023-04-20T12:24:59;13.50;99.90
43627;DHT22;29217;52.586;13.442;2023-04-20T12:27:24;13.80;99.90
43627;DHT22;29217;52.586;13.442;2023-04-20T12:29:50;14.20;99.90
43627;DHT22;29217;52.586;13.442;2023-04-20T12:32:16;14.50;99.90
43627;DHT22;29217;52.586;13.442;2023-04-20T12:34:41;14.80;99.90
43627;DHT22;29217;52.586;13.442;2023-04-20T12:37:07;15.20;99.90
43627;DHT22;29217;52.586;13.442;2023-04-20T12:39:33;15.50;99.90
43627;DHT22;29217;52.586;13.442;2023-04-20T12:41:58;15.60;99.90
43627;DHT22;29217;52.586;13.442;2023-04-20T12:44:24;15.50;99.90
43627;DHT22;29217;52.586;13.442;2023-04-20T12:46:50;15.20;99.90
43627;DHT22;29217;52.586;13.442;2023-04-20T12:49:15;15.00;99.90
43627;DHT22;29217;52.586;13.442;2023-04-20T12:51:41;15.00;99.90
43627;DHT22;29217;52.586;13.442;2023-04-20T12:54:07;15.20;99.90
43627;DHT22;29217;52.586;13.442;2023-04-20T12:56:32;15.30;99.90
43627;DHT22;29217;52.586;13.442;2023-04-20T12:58:58;15.30;99.90
43627;DHT22;29217;52.586;13.442;2023-04-20T13:01:24;15.40;99.90
43627;DHT22;29217;52.586;13.442;2023-04-20T13:03:50;15.50;99.90
43627;DHT22;29217;52.586;13.442;2023-04-20T13:06:16;15.40;99.90
43627;DHT22;29217;52.586;13.442;2023-04-20T13:08:41;15.20;99.90
43627;DHT22;29217;52.586;13.442;2023-04-20T13:11:09;15.00;99.90
43627;DHT22;29217;52.586;13.442;2023-04-20T13:13:36;14.80;99.90
43627;DHT22;29217;52.586;13.442;2023-04-20T13:16:02;15.00;99.90
43627;DHT22;29217;52.586;13.442;2023-04-20T13:18:27;15.10;99.90
43627;DHT22;29217;52.586;13.442;2023-04-20T13:20:53;15.50;99.90
43627;DHT22;29217;52.586;13.442;2023-04-20T13:23:18;15.50;99.90
43627;DHT22;29217;52.586;13.442;2023-04-20T13:25:44;15.50;99.90
43627;DHT22;29217;52.586;13.442;2023-04-20T13:28:10;15.90;99.90
43627;DHT22;29217;52.586;13.442;2023-04-20T13:30:36;16.00;99.90
43627;DHT22;29217;52.586;13.442;2023-04-20T13:33:03;16.30;99.90
43627;DHT22;29217;52.586;13.442;2023-04-20T13:35:29;16.40;99.90
43627;DHT22;29217;52.586;13.442;2023-04-20T13:37:54;16.50;99.90
43627;DHT22;29217;52.586;13.442;2023-04-20T13:40:20;16.60;99.90
43627;DHT22;29217;52.586;13.442;2023-04-20T13:42:46;16.80;99.90
43627;DHT22;29217;52.586;13.442;2023-04-20T13:45:12;16.60;99.90
43627;DHT22;29217;52.586;13.442;2023-04-20T13:47:38;16.30;99.90
43627;DHT22;29217;52.586;13.442;2023-04-20T13:50:05;16.00;99.90
43627;DHT22;29217;52.586;13.442;2023-04-20T13:52:31;15.80;99.90
43627;DHT22;29217;52.586;13.442;2023-04-20T13:54:56;15.70;99.90
43627;DHT22;29217;52.586;13.442;2023-04-20T13:57:22;15.50;99.90
43627;DHT22;29217;52.586;13.442;2023-04-20T13:59:48;15.30;99.90
43627;DHT22;29217;52.586;13.442;2023-04-20T14:02:14;15.30;99.90
43627;DHT22;29217;52.586;13.442;2023-04-20T14:04:40;15.70;99.90
43627;DHT22;29217;52.586;13.442;2023-04-20T14:07:06;16.20;99.90
43627;DHT22;29217;52.586;13.442;2023-04-20T14:09:31;16.70;99.90
43627;DHT22;29217;52.586;13.442;2023-04-20T14:11:57;17.10;99.90
43627;DHT22;29217;52.586;13.442;2023-04-20T14:14:23;17.30;99.90
43627;DHT22;29217;52.586;13.442;2023-04-20T14:16:49;17.40;99.90
43627;DHT22;29217;52.586;13.442;2023-04-20T14:19:15;17.50;99.90
43627;DHT22;29217;52.586;13.442;2023-04-20T14:21:41;17.70;99.90
43627;DHT22;29217;52.586;13.442;2023-04-20T14:24:12;17.70;99.90
43627;DHT22;29217;52.586;13.442;2023-04-20T14:26:38;17.70;99.90
43627;DHT22;29217;52.586;13.442;2023-04-20T14:29:04;17.30;99.90
43627;DHT22;29217;52.586;13.442;2023-04-20T14:31:30;17.00;99.90
43627;DHT22;29217;52.586;13.442;2023-04-20T14:33:56;16.50;99.90
43627;DHT22;29217;52.586;13.442;2023-04-20T14:36:22;16.40;99.90
43627;DHT22;29217;52.586;13.442;2023-04-20T14:38:48;16.30;99.90
43627;DHT22;29217;52.586;13.442;2023-04-20T14:41:15;16.30;99.90
43627;DHT22;29217;52.586;13.442;2023-04-20T14:43:41;16.20;99.90
43627;DHT22;29217;52.586;13.442;2023-04-20T14:46:06;16.20;99.90
43627;DHT22;29217;52.586;13.442;2023-04-20T14:48:32;16.20;99.90
43627;DHT22;29217;52.586;13.442;2023-04-20T14:50:58;16.10;99.90
43627;DHT22;29217;52.586;13.442;2023-04-20T14:53:24;16.00;99.90
43627;DHT22;29217;52.586;13.442;2023-04-20T14:55:50;15.90;99.90
43627;DHT22;29217;52.586;13.442;2023-04-20T14:58:17;15.80;99.90
43627;DHT22;29217;52.586;13.442;2023-04-20T15:00:42;15.80;99.90
43627;DHT22;29217;52.586;13.442;2023-04-20T15:03:08;15.80;99.90
43627;DHT22;29217;52.586;13.442;2023-04-20T15:05:34;15.70;99.90
43627;DHT22;29217;52.586;13.442;2023-04-20T15:07:59;15.60;99.90
43627;DHT22;29217;52.586;13.442;2023-04-20T15:10:34;15.60;99.90
43627;DHT22;29217;52.586;13.442;2023-04-20T15:12:59;15.50;99.90
43627;DHT22;29217;52.586;13.442;2023-04-20T15:15:25;15.50;99.90
43627;DHT22;29217;52.586;13.442;2023-04-20T15:17:52;15.50;99.90
43627;DHT22;29217;52.586;13.442;2023-04-20T15:20:18;15.50;99.90
43627;DHT22;29217;52.586;13.442;2023-04-20T15:22:44;15.50;99.90
43627;DHT22;29217;52.586;13.442;2023-04-20T15:25:10;15.50;99.90
43627;DHT22;29217;52.586;13.442;2023-04-20T15:27:35;15.50;99.90
43627;DHT22;29217;52.586;13.442;2023-04-20T15:30:02;15.60;99.90